createdAt,value
2018-01-21T00:00:50.023Z,0
2018-01-21T00:01:52.722Z,0
2018-01-21T00:02:55.128Z,0
2018-01-21T00:03:57.541Z,0
2018-01-21T00:04:59.944Z,0
2018-01-21T00:06:02.348Z,0
2018-01-21T00:07:04.763Z,0
2018-01-21T00:08:07.170Z,0
2018-01-21T00:09:09.584Z,0
2018-01-21T00:10:12.557Z,0
2018-01-21T00:11:14.972Z,0
2018-01-21T00:12:17.388Z,0
2018-01-21T00:13:19.794Z,0
2018-01-21T00:14:22.211Z,0
2018-01-21T00:15:24.613Z,0
2018-01-21T00:16:27.019Z,0
2018-01-21T00:17:29.424Z,0
2018-01-21T00:18:31.843Z,0
2018-01-21T00:19:34.240Z,0
2018-01-21T00:20:36.656Z,0
2018-01-21T00:21:39.063Z,0
2018-01-21T00:22:41.473Z,0
2018-01-21T00:23:44.172Z,0
2018-01-21T00:24:46.573Z,0
2018-01-21T00:25:48.980Z,0
2018-01-21T00:26:51.394Z,0
2018-01-21T00:27:53.807Z,0
2018-01-21T00:28:56.224Z,0
2018-01-21T00:29:58.637Z,0
2018-01-21T00:31:01.343Z,0
2018-01-21T00:32:03.757Z,0
2018-01-21T00:33:06.161Z,0
2018-01-21T00:34:08.576Z,0
2018-01-21T00:35:10.980Z,0
2018-01-21T00:36:13.393Z,0
2018-01-21T00:37:15.796Z,0
2018-01-21T00:38:18.205Z,0
2018-01-21T00:39:20.608Z,0
2018-01-21T00:40:23.316Z,0
2018-01-21T00:41:25.723Z,0
2018-01-21T00:42:28.126Z,0
2018-01-21T00:43:30.539Z,0
2018-01-21T00:44:32.954Z,0
2018-01-21T00:45:35.362Z,0
2018-01-21T00:46:37.785Z,0
2018-01-21T00:47:40.192Z,0
2018-01-21T00:48:42.600Z,0
2018-01-21T00:49:45.012Z,0
2018-01-21T00:50:47.416Z,0
2018-01-21T00:51:49.814Z,0
2018-01-21T00:52:52.226Z,0
2018-01-21T00:53:54.621Z,0
2018-01-21T00:54:57.035Z,0
2018-01-21T00:55:59.443Z,0
2018-01-21T00:57:02.136Z,0
2018-01-21T00:58:04.549Z,0
2018-01-21T00:59:06.949Z,0
2018-01-21T01:00:09.357Z,0
2018-01-21T01:01:12.057Z,0
2018-01-21T01:02:14.461Z,0
2018-01-21T01:03:16.884Z,0
2018-01-21T01:04:19.292Z,0
2018-01-21T01:05:21.696Z,0
2018-01-21T01:06:24.119Z,0
2018-01-21T01:07:26.528Z,0
2018-01-21T01:08:28.940Z,0
2018-01-21T01:09:31.628Z,0
2018-01-21T01:10:34.310Z,0
2018-01-21T01:11:36.720Z,0
2018-01-21T01:12:39.132Z,0
2018-01-21T01:13:41.544Z,0
2018-01-21T01:14:43.951Z,0
2018-01-21T01:15:46.359Z,0
2018-01-21T01:16:48.758Z,0
2018-01-21T01:17:51.176Z,0
2018-01-21T01:18:53.586Z,0
2018-01-21T01:19:55.986Z,0
2018-01-21T01:20:58.394Z,0
2018-01-21T01:22:01.372Z,0
2018-01-21T01:23:03.780Z,0
2018-01-21T01:24:06.203Z,0
2018-01-21T01:25:08.883Z,0
2018-01-21T01:26:11.282Z,0
2018-01-21T01:27:13.709Z,0
2018-01-21T01:28:16.110Z,0
2018-01-21T01:29:18.805Z,0
2018-01-21T01:30:21.215Z,0
2018-01-21T01:31:23.626Z,0
2018-01-21T01:32:26.042Z,0
2018-01-21T01:33:28.452Z,0
2018-01-21T01:34:30.863Z,0
2018-01-21T01:35:33.278Z,0
2018-01-21T01:36:35.673Z,0
2018-01-21T01:37:38.381Z,0
2018-01-21T01:38:40.796Z,0
2018-01-21T01:39:43.199Z,0
2018-01-21T01:40:45.613Z,0
2018-01-21T01:41:48.014Z,0
2018-01-21T01:42:50.412Z,0
2018-01-21T01:43:53.177Z,0
2018-01-21T01:44:55.579Z,0
2018-01-21T01:45:57.990Z,0
2018-01-21T01:47:00.397Z,0
2018-01-21T01:48:02.800Z,0
2018-01-21T01:49:05.212Z,0
2018-01-21T01:50:07.633Z,0
2018-01-21T01:51:10.027Z,0
2018-01-21T01:52:12.436Z,0
2018-01-21T01:53:14.857Z,0
2018-01-21T01:54:17.267Z,0
2018-01-21T01:55:19.675Z,0
2018-01-21T01:56:22.081Z,0
2018-01-21T01:57:24.490Z,0
2018-01-21T01:58:26.893Z,0
2018-01-21T01:59:29.300Z,0
2018-01-21T02:00:31.719Z,0
2018-01-21T02:01:34.122Z,0
2018-01-21T02:02:36.534Z,0
2018-01-21T02:03:38.948Z,0
2018-01-21T02:04:41.353Z,0
2018-01-21T02:05:43.763Z,0
2018-01-21T02:06:46.457Z,0
2018-01-21T02:07:48.862Z,0
2018-01-21T02:08:51.266Z,0
2018-01-21T02:09:53.676Z,0
2018-01-21T02:10:56.086Z,0
2018-01-21T02:11:58.485Z,0
2018-01-21T02:13:00.884Z,0
2018-01-21T02:14:03.281Z,0
2018-01-21T02:15:05.697Z,0
2018-01-21T02:16:08.660Z,0
2018-01-21T02:17:11.054Z,0
2018-01-21T02:18:13.456Z,0
2018-01-21T02:19:15.855Z,0
2018-01-21T02:20:18.256Z,0
2018-01-21T02:21:20.662Z,0
2018-01-21T02:22:23.060Z,0
2018-01-21T02:23:25.462Z,0
2018-01-21T02:24:27.852Z,0
2018-01-21T02:25:30.256Z,0
2018-01-21T02:26:32.647Z,0
2018-01-21T02:27:35.044Z,0
2018-01-21T02:28:37.738Z,0
2018-01-21T02:29:40.141Z,0
2018-01-21T02:30:42.824Z,0
2018-01-21T02:31:45.528Z,0
2018-01-21T02:32:47.926Z,0
2018-01-21T02:33:50.315Z,0
2018-01-21T02:34:52.729Z,0
2018-01-21T02:35:55.193Z,0
2018-01-21T02:36:57.846Z,0
2018-01-21T02:38:00.250Z,0
2018-01-21T02:39:02.658Z,0
2018-01-21T02:40:05.066Z,0
2018-01-21T02:41:07.482Z,0
2018-01-21T02:42:09.873Z,0
2018-01-21T02:43:12.574Z,0
2018-01-21T02:44:14.984Z,0
2018-01-21T02:45:17.701Z,0
2018-01-21T02:46:20.109Z,0
2018-01-21T02:47:22.523Z,0
2018-01-21T02:48:24.921Z,0
2018-01-21T02:49:27.336Z,0
2018-01-21T02:50:29.748Z,0
2018-01-21T02:51:32.161Z,0
2018-01-21T02:52:34.568Z,0
2018-01-21T02:53:36.972Z,0
2018-01-21T02:54:39.374Z,0
2018-01-21T02:55:41.782Z,0
2018-01-21T02:56:44.194Z,0
2018-01-21T02:57:46.612Z,0
2018-01-21T02:58:49.591Z,0
2018-01-21T02:59:52.012Z,0
2018-01-21T03:00:54.432Z,0
2018-01-21T03:01:56.828Z,0
2018-01-21T03:02:59.245Z,0
2018-01-21T03:04:02.220Z,0
2018-01-21T03:05:04.622Z,0
2018-01-21T03:06:07.038Z,0
2018-01-21T03:07:09.436Z,0
2018-01-21T03:08:11.834Z,0
2018-01-21T03:09:14.260Z,0
2018-01-21T03:10:16.667Z,0
2018-01-21T03:11:19.355Z,0
2018-01-21T03:12:22.052Z,0
2018-01-21T03:13:24.452Z,0
2018-01-21T03:14:26.881Z,0
2018-01-21T03:15:29.291Z,0
2018-01-21T03:16:31.695Z,0
2018-01-21T03:17:34.111Z,0
2018-01-21T03:18:36.512Z,0
2018-01-21T03:19:38.919Z,0
2018-01-21T03:20:41.327Z,0
2018-01-21T03:21:43.719Z,0
2018-01-21T03:22:46.132Z,0
2018-01-21T03:23:48.552Z,0
2018-01-21T03:24:51.237Z,0
2018-01-21T03:25:53.643Z,0
2018-01-21T03:26:56.056Z,0
2018-01-21T03:27:58.470Z,0
2018-01-21T03:29:00.875Z,0
2018-01-21T03:30:03.559Z,0
2018-01-21T03:31:05.979Z,0
2018-01-21T03:32:08.680Z,0
2018-01-21T03:33:11.072Z,0
2018-01-21T03:34:13.484Z,0
2018-01-21T03:35:15.897Z,0
2018-01-21T03:36:18.305Z,0
2018-01-21T03:37:20.722Z,0
2018-01-21T03:38:23.120Z,0
2018-01-21T03:39:25.528Z,0
2018-01-21T03:40:27.954Z,0
2018-01-21T03:41:30.345Z,0
2018-01-21T03:42:32.818Z,0
2018-01-21T03:43:35.220Z,0
2018-01-21T03:44:37.632Z,0
2018-01-21T03:45:40.042Z,0
2018-01-21T03:46:42.733Z,0
2018-01-21T03:47:45.134Z,0
2018-01-21T03:48:47.552Z,0
2018-01-21T03:49:49.949Z,0
2018-01-21T03:50:52.357Z,0
2018-01-21T03:51:54.771Z,0
2018-01-21T03:52:57.174Z,0
2018-01-21T03:53:59.865Z,0
2018-01-21T03:55:02.278Z,0
2018-01-21T03:56:04.680Z,0
2018-01-21T03:57:07.095Z,0
2018-01-21T03:58:09.498Z,0
2018-01-21T03:59:11.900Z,0
2018-01-21T04:00:14.309Z,0
2018-01-21T04:01:16.713Z,0
2018-01-21T04:02:19.127Z,0
2018-01-21T04:03:21.538Z,0
2018-01-21T04:04:23.952Z,0
2018-01-21T04:05:26.648Z,0
2018-01-21T04:06:29.058Z,0
2018-01-21T04:07:31.475Z,0
2018-01-21T04:08:34.160Z,0
2018-01-21T04:09:36.571Z,0
2018-01-21T04:10:38.973Z,0
2018-01-21T04:11:41.387Z,0
2018-01-21T04:12:44.068Z,0
2018-01-21T04:13:46.488Z,0
2018-01-21T04:14:48.904Z,0
2018-01-21T04:15:51.305Z,0
2018-01-21T04:16:53.717Z,0
2018-01-21T04:17:56.125Z,0
2018-01-21T04:18:58.541Z,0
2018-01-21T04:20:01.230Z,0
2018-01-21T04:21:03.639Z,0
2018-01-21T04:22:06.327Z,0
2018-01-21T04:23:08.748Z,0
2018-01-21T04:24:11.158Z,0
2018-01-21T04:25:13.837Z,0
2018-01-21T04:26:16.249Z,0
2018-01-21T04:27:18.657Z,0
2018-01-21T04:28:21.057Z,0
2018-01-21T04:29:23.462Z,0
2018-01-21T04:30:25.880Z,0
2018-01-21T04:31:28.280Z,0
2018-01-21T04:32:30.697Z,0
2018-01-21T04:33:33.099Z,0
2018-01-21T04:34:35.514Z,0
2018-01-21T04:35:37.925Z,0
2018-01-21T04:36:40.334Z,0
2018-01-21T04:37:43.011Z,0
2018-01-21T04:38:45.721Z,0
2018-01-21T04:39:48.127Z,0
2018-01-21T04:40:50.526Z,0
2018-01-21T04:41:52.939Z,0
2018-01-21T04:42:55.345Z,0
2018-01-21T04:43:57.759Z,0
2018-01-21T04:45:00.169Z,0
2018-01-21T04:46:02.585Z,0
2018-01-21T04:47:04.989Z,0
2018-01-21T04:48:07.402Z,0
2018-01-21T04:49:09.806Z,0
2018-01-21T04:50:12.216Z,0
2018-01-21T04:51:14.623Z,0
2018-01-21T04:52:17.022Z,0
2018-01-21T04:53:19.433Z,0
2018-01-21T04:54:21.840Z,0
2018-01-21T04:55:24.256Z,0
2018-01-21T04:56:26.653Z,0
2018-01-21T04:57:29.068Z,0
2018-01-21T04:58:31.476Z,0
2018-01-21T04:59:33.880Z,0
2018-01-21T05:00:36.289Z,0
2018-01-21T05:01:38.703Z,0
2018-01-21T05:02:41.092Z,0
2018-01-21T05:03:43.520Z,0
2018-01-21T05:04:45.921Z,0
2018-01-21T05:05:48.327Z,0
2018-01-21T05:06:50.740Z,0
2018-01-21T05:07:53.141Z,0
2018-01-21T05:08:55.553Z,0
2018-01-21T05:09:57.961Z,0
2018-01-21T05:11:00.365Z,0
2018-01-21T05:12:02.764Z,0
2018-01-21T05:13:05.192Z,0
2018-01-21T05:14:07.886Z,0
2018-01-21T05:15:10.294Z,0
2018-01-21T05:16:12.704Z,0
2018-01-21T05:17:15.112Z,0
2018-01-21T05:18:17.804Z,0
2018-01-21T05:19:20.212Z,0
2018-01-21T05:20:22.608Z,0
2018-01-21T05:21:25.023Z,0
2018-01-21T05:22:27.428Z,0
2018-01-21T05:23:29.844Z,0
2018-01-21T05:24:32.248Z,0
2018-01-21T05:25:34.662Z,0
2018-01-21T05:26:37.057Z,0
2018-01-21T05:27:39.768Z,0
2018-01-21T05:28:42.172Z,0
2018-01-21T05:29:44.578Z,0
2018-01-21T05:30:46.991Z,0
2018-01-21T05:31:49.680Z,0
2018-01-21T05:32:52.366Z,0
2018-01-21T05:33:54.775Z,0
2018-01-21T05:34:57.172Z,0
2018-01-21T05:35:59.579Z,0
2018-01-21T05:37:01.994Z,0
2018-01-21T05:38:04.406Z,0
2018-01-21T05:39:06.812Z,0
2018-01-21T05:40:09.224Z,0
2018-01-21T05:41:11.913Z,0
2018-01-21T05:42:14.602Z,0
2018-01-21T05:43:17.010Z,0
2018-01-21T05:44:19.415Z,0
2018-01-21T05:45:22.102Z,0
2018-01-21T05:46:24.519Z,0
2018-01-21T05:47:27.210Z,0
2018-01-21T05:48:29.609Z,0
2018-01-21T05:49:32.024Z,0
2018-01-21T05:50:34.442Z,0
2018-01-21T05:51:36.850Z,0
2018-01-21T05:52:39.262Z,0
2018-01-21T05:53:41.660Z,0
2018-01-21T05:54:44.086Z,0
2018-01-21T05:55:46.489Z,0
2018-01-21T05:56:48.889Z,0
2018-01-21T05:57:51.610Z,0
2018-01-21T05:58:54.020Z,0
2018-01-21T05:59:56.723Z,0
2018-01-21T06:00:59.391Z,0
2018-01-21T06:02:01.803Z,0
2018-01-21T06:03:04.207Z,0
2018-01-21T06:04:06.898Z,0
2018-01-21T06:05:09.313Z,0
2018-01-21T06:06:12.005Z,0
2018-01-21T06:07:14.415Z,0
2018-01-21T06:08:16.830Z,0
2018-01-21T06:09:19.231Z,0
2018-01-21T06:10:21.651Z,0
2018-01-21T06:11:24.053Z,0
2018-01-21T06:12:26.467Z,0
2018-01-21T06:13:28.872Z,0
2018-01-21T06:14:31.276Z,0
2018-01-21T06:15:33.677Z,0
2018-01-21T06:16:36.087Z,0
2018-01-21T06:17:38.492Z,0
2018-01-21T06:18:40.901Z,0
2018-01-21T06:19:43.306Z,0
2018-01-21T06:20:45.723Z,0
2018-01-21T06:21:48.125Z,0
2018-01-21T06:22:50.590Z,0
2018-01-21T06:23:52.947Z,0
2018-01-21T06:24:55.633Z,0
2018-01-21T06:25:58.040Z,0
2018-01-21T06:27:00.756Z,0
2018-01-21T06:28:03.157Z,0
2018-01-21T06:29:05.563Z,0
2018-01-21T06:30:07.979Z,0
2018-01-21T06:31:10.382Z,0
2018-01-21T06:32:12.795Z,0
2018-01-21T06:33:15.213Z,0
2018-01-21T06:34:17.608Z,0
2018-01-21T06:35:20.310Z,0
2018-01-21T06:36:22.714Z,0
2018-01-21T06:37:25.123Z,0
2018-01-21T06:38:27.531Z,0
2018-01-21T06:39:29.940Z,0
2018-01-21T06:40:32.350Z,0
2018-01-21T06:41:34.759Z,4
2018-01-21T06:42:37.163Z,4
2018-01-21T06:43:39.577Z,4
2018-01-21T06:44:42.268Z,0
2018-01-21T06:45:44.681Z,4
2018-01-21T06:46:47.083Z,4
2018-01-21T06:47:49.779Z,8
2018-01-21T06:48:52.192Z,4
2018-01-21T06:49:54.602Z,8
2018-01-21T06:50:57.016Z,8
2018-01-21T06:51:59.431Z,8
2018-01-21T06:53:02.123Z,12
2018-01-21T06:54:04.546Z,12
2018-01-21T06:55:07.235Z,16
2018-01-21T06:56:09.646Z,16
2018-01-21T06:57:12.048Z,20
2018-01-21T06:58:14.468Z,20
2018-01-21T06:59:16.886Z,28
2018-01-21T07:00:19.290Z,28
2018-01-21T07:01:21.704Z,36
2018-01-21T07:02:24.114Z,40
2018-01-21T07:03:26.529Z,48
2018-01-21T07:04:29.220Z,56
2018-01-21T07:05:31.623Z,60
2018-01-21T07:06:34.026Z,72
2018-01-21T07:07:36.429Z,80
2018-01-21T07:08:38.833Z,88
2018-01-21T07:09:41.253Z,100
2018-01-21T07:10:43.953Z,112
2018-01-21T07:11:46.347Z,120
2018-01-21T07:12:48.759Z,132
2018-01-21T07:13:51.166Z,144
2018-01-21T07:14:53.567Z,156
2018-01-21T07:15:55.978Z,176
2018-01-21T07:16:58.375Z,192
2018-01-21T07:18:00.777Z,216
2018-01-21T07:19:03.489Z,236
2018-01-21T07:20:05.892Z,256
2018-01-21T07:21:08.299Z,280
2018-01-21T07:22:10.981Z,300
2018-01-21T07:23:13.390Z,316
2018-01-21T07:24:15.833Z,340
2018-01-21T07:25:18.513Z,364
2018-01-21T07:26:20.910Z,388
2018-01-21T07:27:23.326Z,408
2018-01-21T07:28:25.740Z,436
2018-01-21T07:29:28.145Z,460
2018-01-21T07:30:30.553Z,484
2018-01-21T07:31:32.968Z,512
2018-01-21T07:32:35.370Z,540
2018-01-21T07:33:37.789Z,564
2018-01-21T07:34:40.471Z,592
2018-01-21T07:35:42.873Z,620
2018-01-21T07:36:45.285Z,648
2018-01-21T07:37:47.696Z,684
2018-01-21T07:38:50.390Z,728
2018-01-21T07:39:52.804Z,772
2018-01-21T07:40:55.485Z,816
2018-01-21T07:41:58.204Z,864
2018-01-21T07:43:00.613Z,916
2018-01-21T07:44:03.017Z,972
2018-01-21T07:45:05.437Z,1024
2018-01-21T07:46:07.845Z,1080
2018-01-21T07:47:10.536Z,1136
2018-01-21T07:48:13.233Z,1196
2018-01-21T07:49:15.629Z,1256
2018-01-21T07:50:18.045Z,1316
2018-01-21T07:51:20.448Z,1376
2018-01-21T07:52:22.853Z,1436
2018-01-21T07:53:25.266Z,1488
2018-01-21T07:54:27.678Z,1532
2018-01-21T07:55:30.089Z,1568
2018-01-21T07:56:32.777Z,1608
2018-01-21T07:57:35.186Z,1648
2018-01-21T07:58:37.881Z,1692
2018-01-21T07:59:40.290Z,1728
2018-01-21T08:00:42.974Z,1764
2018-01-21T08:01:45.670Z,1804
2018-01-21T08:02:48.079Z,1832
2018-01-21T08:03:50.490Z,1860
2018-01-21T08:04:52.895Z,1892
2018-01-21T08:05:55.603Z,1932
2018-01-21T08:06:58.007Z,1980
2018-01-21T08:08:00.417Z,2028
2018-01-21T08:09:02.828Z,2088
2018-01-21T08:10:05.245Z,2152
2018-01-21T08:11:07.652Z,2208
2018-01-21T08:12:10.063Z,2264
2018-01-21T08:13:12.764Z,2312
2018-01-21T08:14:15.463Z,2344
2018-01-21T08:15:17.863Z,2384
2018-01-21T08:16:20.291Z,2408
2018-01-21T08:17:22.986Z,2456
2018-01-21T08:18:25.413Z,2500
2018-01-21T08:19:28.461Z,2564
2018-01-21T08:20:31.921Z,2632
2018-01-21T08:21:34.428Z,2708
2018-01-21T08:22:37.003Z,2784
2018-01-21T08:23:39.540Z,2864
2018-01-21T08:24:42.516Z,2968
2018-01-21T08:25:44.953Z,3088
2018-01-21T08:26:47.609Z,3208
2018-01-21T08:27:50.119Z,3352
2018-01-21T08:28:52.709Z,3504
2018-01-21T08:29:55.310Z,3664
2018-01-21T08:30:57.714Z,3800
2018-01-21T08:32:00.118Z,3904
2018-01-21T08:33:02.545Z,4004
2018-01-21T08:34:04.951Z,4104
2018-01-21T08:35:07.919Z,4204
2018-01-21T08:36:10.334Z,4292
2018-01-21T08:37:12.745Z,4384
2018-01-21T08:38:15.149Z,4460
2018-01-21T08:39:17.570Z,4548
2018-01-21T08:40:19.968Z,4620
2018-01-21T08:41:22.387Z,4664
2018-01-21T08:42:24.798Z,4712
2018-01-21T08:43:27.204Z,4788
2018-01-21T08:44:29.618Z,4936
2018-01-21T08:45:32.613Z,5120
2018-01-21T08:46:35.015Z,5292
2018-01-21T08:47:37.430Z,5404
2018-01-21T08:48:39.839Z,5552
2018-01-21T08:49:42.240Z,5632
2018-01-21T08:50:44.655Z,5692
2018-01-21T08:51:47.070Z,5760
2018-01-21T08:52:49.471Z,5852
2018-01-21T08:53:51.880Z,5952
2018-01-21T08:54:54.298Z,6064
2018-01-21T08:55:56.709Z,6140
2018-01-21T08:56:59.390Z,6220
2018-01-21T08:58:01.804Z,6300
2018-01-21T08:59:04.213Z,6372
2018-01-21T09:00:06.631Z,6500
2018-01-21T09:01:09.045Z,6680
2018-01-21T09:02:11.459Z,6912
2018-01-21T09:03:13.872Z,7148
2018-01-21T09:04:16.286Z,7372
2018-01-21T09:05:18.699Z,7532
2018-01-21T09:06:21.098Z,7676
2018-01-21T09:07:23.504Z,7728
2018-01-21T09:08:25.921Z,7700
2018-01-21T09:09:28.334Z,7584
2018-01-21T09:10:31.037Z,7408
2018-01-21T09:11:33.717Z,7244
2018-01-21T09:12:36.124Z,7136
2018-01-21T09:13:38.550Z,7088
2018-01-21T09:14:40.949Z,7084
2018-01-21T09:15:43.359Z,7116
2018-01-21T09:16:45.825Z,7192
2018-01-21T09:17:48.479Z,7336
2018-01-21T09:18:50.897Z,7568
2018-01-21T09:19:53.600Z,7908
2018-01-21T09:20:56.278Z,8308
2018-01-21T09:21:58.696Z,8720
2018-01-21T09:23:01.104Z,9100
2018-01-21T09:24:03.514Z,9396
2018-01-21T09:25:05.925Z,9624
2018-01-21T09:26:08.624Z,9796
2018-01-21T09:27:11.032Z,9928
2018-01-21T09:28:13.437Z,10012
2018-01-21T09:29:15.855Z,10008
2018-01-21T09:30:18.263Z,9960
2018-01-21T09:31:21.156Z,9900
2018-01-21T09:32:23.569Z,9744
2018-01-21T09:33:25.974Z,9616
2018-01-21T09:34:28.390Z,9544
2018-01-21T09:35:30.800Z,9472
2018-01-21T09:36:33.209Z,9464
2018-01-21T09:37:35.625Z,9508
2018-01-21T09:38:38.036Z,9564
2018-01-21T09:39:40.433Z,9640
2018-01-21T09:40:42.847Z,9700
2018-01-21T09:41:45.261Z,9748
2018-01-21T09:42:47.951Z,9820
2018-01-21T09:43:50.367Z,9888
2018-01-21T09:44:52.773Z,9908
2018-01-21T09:45:55.191Z,9872
2018-01-21T09:46:57.615Z,9796
2018-01-21T09:48:00.026Z,9728
2018-01-21T09:49:02.433Z,9676
2018-01-21T09:50:04.847Z,9708
2018-01-21T09:51:07.547Z,9736
2018-01-21T09:52:09.959Z,9796
2018-01-21T09:53:12.372Z,9848
2018-01-21T09:54:14.781Z,9908
2018-01-21T09:55:17.197Z,9992
2018-01-21T09:56:19.603Z,10108
2018-01-21T09:57:22.304Z,10232
2018-01-21T09:58:24.711Z,10388
2018-01-21T09:59:27.122Z,10448
2018-01-21T10:00:29.534Z,10424
2018-01-21T10:01:31.952Z,10320
2018-01-21T10:02:34.356Z,10196
2018-01-21T10:03:36.784Z,10080
2018-01-21T10:04:39.189Z,9928
2018-01-21T10:05:41.603Z,9840
2018-01-21T10:06:44.018Z,9736
2018-01-21T10:07:46.432Z,9688
2018-01-21T10:08:48.842Z,9652
2018-01-21T10:09:51.257Z,9676
2018-01-21T10:10:53.954Z,9720
2018-01-21T10:11:56.361Z,9812
2018-01-21T10:12:59.083Z,9908
2018-01-21T10:14:01.490Z,10068
2018-01-21T10:15:04.203Z,10240
2018-01-21T10:16:06.607Z,10396
2018-01-21T10:17:09.302Z,10500
2018-01-21T10:18:12.291Z,10560
2018-01-21T10:19:14.708Z,10612
2018-01-21T10:20:17.110Z,10612
2018-01-21T10:21:19.521Z,10572
2018-01-21T10:22:22.212Z,10532
2018-01-21T10:23:24.909Z,10468
2018-01-21T10:24:27.362Z,10404
2018-01-21T10:25:29.740Z,10356
2018-01-21T10:26:32.161Z,10300
2018-01-21T10:27:34.852Z,10200
2018-01-21T10:28:37.275Z,10048
2018-01-21T10:29:39.680Z,9868
2018-01-21T10:30:42.095Z,9664
2018-01-21T10:31:44.503Z,9500
2018-01-21T10:32:47.200Z,9396
2018-01-21T10:33:49.604Z,9328
2018-01-21T10:34:52.027Z,9300
2018-01-21T10:35:54.433Z,9284
2018-01-21T10:36:56.856Z,9292
2018-01-21T10:37:59.556Z,9300
2018-01-21T10:39:01.953Z,9324
2018-01-21T10:40:04.377Z,9364
2018-01-21T10:41:06.787Z,9448
2018-01-21T10:42:09.200Z,9532
2018-01-21T10:43:11.888Z,9644
2018-01-21T10:44:14.302Z,9748
2018-01-21T10:45:16.711Z,9852
2018-01-21T10:46:19.139Z,9936
2018-01-21T10:47:21.587Z,10020
2018-01-21T10:48:23.955Z,10104
2018-01-21T10:49:26.943Z,10216
2018-01-21T10:50:29.365Z,10324
2018-01-21T10:51:32.052Z,10468
2018-01-21T10:52:34.466Z,10632
2018-01-21T10:53:37.166Z,10796
2018-01-21T10:54:39.579Z,10936
2018-01-21T10:55:42.043Z,11020
2018-01-21T10:56:44.413Z,11080
2018-01-21T10:57:47.112Z,11128
2018-01-21T10:58:49.546Z,11172
2018-01-21T10:59:51.942Z,11272
2018-01-21T11:00:54.340Z,11428
2018-01-21T11:01:56.757Z,11568
2018-01-21T11:02:59.170Z,11660
2018-01-21T11:04:01.580Z,11720
2018-01-21T11:05:04.004Z,11772
2018-01-21T11:06:06.414Z,11784
2018-01-21T11:07:08.831Z,11788
2018-01-21T11:08:11.237Z,11868
2018-01-21T11:09:13.655Z,11980
2018-01-21T11:10:16.055Z,12164
2018-01-21T11:11:18.472Z,12380
2018-01-21T11:12:20.889Z,12624
2018-01-21T11:13:23.304Z,12888
2018-01-21T11:14:25.712Z,13104
2018-01-21T11:15:28.119Z,13272
2018-01-21T11:16:30.532Z,13348
2018-01-21T11:17:32.946Z,13396
2018-01-21T11:18:35.355Z,13444
2018-01-21T11:19:37.771Z,13508
2018-01-21T11:20:40.178Z,13640
2018-01-21T11:21:42.596Z,13812
2018-01-21T11:22:45.006Z,14036
2018-01-21T11:23:47.423Z,14284
2018-01-21T11:24:49.824Z,14492
2018-01-21T11:25:52.530Z,14676
2018-01-21T11:26:54.960Z,14856
2018-01-21T11:27:57.366Z,14960
2018-01-21T11:28:59.782Z,15020
2018-01-21T11:30:02.204Z,15040
2018-01-21T11:31:04.615Z,14952
2018-01-21T11:32:07.038Z,14824
2018-01-21T11:33:09.460Z,14684
2018-01-21T11:34:11.859Z,14528
2018-01-21T11:35:14.580Z,14312
2018-01-21T11:36:16.989Z,14048
2018-01-21T11:37:19.412Z,13784
2018-01-21T11:38:21.834Z,13564
2018-01-21T11:39:24.247Z,13364
2018-01-21T11:40:26.661Z,13212
2018-01-21T11:41:29.083Z,13124
2018-01-21T11:42:31.496Z,13072
2018-01-21T11:43:33.915Z,13060
2018-01-21T11:44:36.329Z,13092
2018-01-21T11:45:39.030Z,13156
2018-01-21T11:46:41.438Z,13184
2018-01-21T11:47:43.855Z,13224
2018-01-21T11:48:46.548Z,13196
2018-01-21T11:49:48.968Z,13156
2018-01-21T11:50:51.386Z,13124
2018-01-21T11:51:54.089Z,13112
2018-01-21T11:52:56.546Z,13108
2018-01-21T11:53:58.916Z,13112
2018-01-21T11:55:01.325Z,13112
2018-01-21T11:56:03.741Z,13076
2018-01-21T11:57:06.153Z,13004
2018-01-21T11:58:08.560Z,12952
2018-01-21T11:59:10.971Z,12900
2018-01-21T12:00:13.389Z,12860
2018-01-21T12:01:15.810Z,12816
2018-01-21T12:02:18.222Z,12780
2018-01-21T12:03:20.916Z,12724
2018-01-21T12:04:23.339Z,12688
2018-01-21T12:05:25.760Z,12652
2018-01-21T12:06:28.172Z,12624
2018-01-21T12:07:30.587Z,12636
2018-01-21T12:08:32.996Z,12648
2018-01-21T12:09:35.706Z,12652
2018-01-21T12:10:38.120Z,12636
2018-01-21T12:11:40.524Z,12628
2018-01-21T12:12:42.944Z,12640
2018-01-21T12:13:45.360Z,12664
2018-01-21T12:14:47.770Z,12736
2018-01-21T12:15:50.185Z,12828
2018-01-21T12:16:52.587Z,12948
2018-01-21T12:17:54.994Z,13028
2018-01-21T12:18:57.723Z,13092
2018-01-21T12:20:00.127Z,13192
2018-01-21T12:21:02.544Z,13276
2018-01-21T12:22:04.958Z,13348
2018-01-21T12:23:07.379Z,13416
2018-01-21T12:24:09.778Z,13480
2018-01-21T12:25:12.196Z,13552
2018-01-21T12:26:14.605Z,13588
2018-01-21T12:27:17.021Z,13624
2018-01-21T12:28:19.437Z,13676
2018-01-21T12:29:21.855Z,13712
2018-01-21T12:30:24.801Z,13740
2018-01-21T12:31:27.385Z,13768
2018-01-21T12:32:29.752Z,13720
2018-01-21T12:33:32.171Z,13616
2018-01-21T12:34:34.592Z,13520
2018-01-21T12:35:37.001Z,13444
2018-01-21T12:36:39.415Z,13464
2018-01-21T12:37:41.828Z,13516
2018-01-21T12:38:44.242Z,13596
2018-01-21T12:39:46.659Z,13676
2018-01-21T12:40:49.069Z,13796
2018-01-21T12:41:51.479Z,13916
2018-01-21T12:42:54.362Z,14032
2018-01-21T12:43:56.778Z,14076
2018-01-21T12:44:59.187Z,14060
2018-01-21T12:46:01.603Z,14028
2018-01-21T12:47:04.016Z,13976
2018-01-21T12:48:06.433Z,13936
2018-01-21T12:49:09.126Z,13912
2018-01-21T12:50:11.556Z,13904
2018-01-21T12:51:14.606Z,13944
2018-01-21T12:52:17.021Z,14016
2018-01-21T12:53:19.441Z,14164
2018-01-21T12:54:21.845Z,14380
2018-01-21T12:55:24.545Z,14620
2018-01-21T12:56:27.252Z,14876
2018-01-21T12:57:29.655Z,15120
2018-01-21T12:58:32.070Z,15308
2018-01-21T12:59:34.495Z,15504
2018-01-21T13:00:36.904Z,15540
2018-01-21T13:01:39.310Z,15372
2018-01-21T13:02:41.733Z,15168
2018-01-21T13:03:44.136Z,14640
2018-01-21T13:04:46.556Z,14316
2018-01-21T13:05:48.967Z,14060
2018-01-21T13:06:51.370Z,13980
2018-01-21T13:07:53.787Z,13904
2018-01-21T13:08:56.195Z,13940
2018-01-21T13:09:58.615Z,13940
2018-01-21T13:11:01.024Z,14056
2018-01-21T13:12:03.440Z,14424
2018-01-21T13:13:05.857Z,15508
2018-01-21T13:14:08.271Z,15840
2018-01-21T13:15:10.684Z,17728
2018-01-21T13:16:13.101Z,21056
2018-01-21T13:17:15.510Z,20512
2018-01-21T13:18:17.929Z,19200
2018-01-21T13:19:20.345Z,20224
2018-01-21T13:20:22.760Z,20672
2018-01-21T13:21:25.169Z,27168
2018-01-21T13:22:27.582Z,31584
2018-01-21T13:23:30.008Z,32672
2018-01-21T13:24:32.422Z,27296
2018-01-21T13:25:34.832Z,28480
2018-01-21T13:26:37.251Z,31200
2018-01-21T13:27:39.672Z,32864
2018-01-21T13:28:42.365Z,27488
2018-01-21T13:29:44.782Z,21728
2018-01-21T13:30:47.187Z,23552
2018-01-21T13:31:49.598Z,22208
2018-01-21T13:32:52.344Z,20672
2018-01-21T13:33:54.712Z,20448
2018-01-21T13:34:57.404Z,18592
2018-01-21T13:35:59.823Z,15352
2018-01-21T13:37:02.236Z,14332
2018-01-21T13:38:04.667Z,14368
2018-01-21T13:39:07.085Z,17824
2018-01-21T13:40:09.768Z,21056
2018-01-21T13:41:12.195Z,20320
2018-01-21T13:42:14.620Z,16960
2018-01-21T13:43:17.315Z,13912
2018-01-21T13:44:20.024Z,12444
2018-01-21T13:45:22.433Z,10992
2018-01-21T13:46:24.847Z,10792
2018-01-21T13:47:27.272Z,10828
2018-01-21T13:48:29.682Z,10788
2018-01-21T13:49:32.098Z,10708
2018-01-21T13:50:34.512Z,10572
2018-01-21T13:51:37.224Z,10436
2018-01-21T13:52:39.633Z,10324
2018-01-21T13:53:42.051Z,10140
2018-01-21T13:54:44.471Z,10096
2018-01-21T13:55:46.882Z,10116
2018-01-21T13:56:49.302Z,10108
2018-01-21T13:57:51.718Z,10004
2018-01-21T13:58:54.119Z,9896
2018-01-21T13:59:56.824Z,9788
2018-01-21T14:00:59.247Z,9604
2018-01-21T14:02:02.231Z,9388
2018-01-21T14:03:04.645Z,9144
2018-01-21T14:04:07.047Z,8864
2018-01-21T14:05:09.458Z,8652
2018-01-21T14:06:11.876Z,8480
2018-01-21T14:07:14.287Z,8360
2018-01-21T14:08:16.713Z,8312
2018-01-21T14:09:19.130Z,8308
2018-01-21T14:10:21.830Z,8320
2018-01-21T14:11:24.255Z,8352
2018-01-21T14:12:26.675Z,8436
2018-01-21T14:13:29.087Z,8472
2018-01-21T14:14:31.500Z,8452
2018-01-21T14:15:33.920Z,8444
2018-01-21T14:16:36.336Z,8340
2018-01-21T14:17:38.750Z,7932
2018-01-21T14:18:41.750Z,7636
2018-01-21T14:19:44.164Z,7424
2018-01-21T14:20:46.580Z,7240
2018-01-21T14:21:48.991Z,7160
2018-01-21T14:22:51.413Z,7096
2018-01-21T14:23:54.110Z,7000
2018-01-21T14:24:56.820Z,6916
2018-01-21T14:25:59.234Z,6876
2018-01-21T14:27:08.537Z,6836
2018-01-21T14:28:11.038Z,6776